sensor_id;sensor_type;location;lat;lon;timestamp;P1;durP1;ratioP1;P2;durP2;ratioP2
25615;SDS011;13482;48.234;13.006;2023-12-22T00:01:20;1.98;;;0.32;;
25615;SDS011;13482;48.234;13.006;2023-12-22T00:03:48;0.57;;;0.20;;
25615;SDS011;13482;48.234;13.006;2023-12-22T00:06:16;1.00;;;0.20;;
25615;SDS011;13482;48.234;13.006;2023-12-22T00:08:44;0.93;;;0.10;;
25615;SDS011;13482;48.234;13.006;2023-12-22T00:11:11;1.02;;;0.10;;
25615;SDS011;13482;48.234;13.006;2023-12-22T00:13:39;0.45;;;0.10;;
25615;SDS011;13482;48.234;13.006;2023-12-22T00:16:06;0.25;;;0.10;;
25615;SDS011;13482;48.234;13.006;2023-12-22T00:18:34;0.17;;;0.08;;
25615;SDS011;13482;48.234;13.006;2023-12-22T00:21:03;0.65;;;0.20;;
25615;SDS011;13482;48.234;13.006;2023-12-22T00:23:30;0.98;;;0.20;;
25615;SDS011;13482;48.234;13.006;2023-12-22T00:28:31;0.75;;;0.10;;
25615;SDS011;13482;48.234;13.006;2023-12-22T00:30:58;0.10;;;0.10;;
25615;SDS011;13482;48.234;13.006;2023-12-22T00:33:26;0.35;;;0.20;;
25615;SDS011;13482;48.234;13.006;2023-12-22T00:35:54;0.30;;;0.15;;
25615;SDS011;13482;48.234;13.006;2023-12-22T00:38:21;0.98;;;0.20;;
25615;SDS011;13482;48.234;13.006;2023-12-22T00:40:49;0.68;;;0.20;;
25615;SDS011;13482;48.234;13.006;2023-12-22T00:43:17;0.73;;;0.30;;
25615;SDS011;13482;48.234;13.006;2023-12-22T00:45:45;0.85;;;0.30;;
25615;SDS011;13482;48.234;13.006;2023-12-22T00:48:12;1.27;;;0.20;;
25615;SDS011;13482;48.234;13.006;2023-12-22T00:50:40;2.28;;;0.30;;
25615;SDS011;13482;48.234;13.006;2023-12-22T00:53:08;1.17;;;0.28;;
25615;SDS011;13482;48.234;13.006;2023-12-22T00:55:35;1.10;;;0.30;;
25615;SDS011;13482;48.234;13.006;2023-12-22T00:58:03;1.15;;;0.30;;
25615;SDS011;13482;48.234;13.006;2023-12-22T01:00:31;0.50;;;0.20;;
25615;SDS011;13482;48.234;13.006;2023-12-22T01:02:58;0.30;;;0.10;;
25615;SDS011;13482;48.234;13.006;2023-12-22T01:05:26;0.40;;;0.10;;
25615;SDS011;13482;48.234;13.006;2023-12-22T01:07:55;0.93;;;0.20;;
25615;SDS011;13482;48.234;13.006;2023-12-22T01:10:23;0.45;;;0.20;;
25615;SDS011;13482;48.234;13.006;2023-12-22T01:12:50;0.77;;;0.17;;
25615;SDS011;13482;48.234;13.006;2023-12-22T01:15:18;1.08;;;0.20;;
25615;SDS011;13482;48.234;13.006;2023-12-22T01:17:45;0.50;;;0.13;;
25615;SDS011;13482;48.234;13.006;2023-12-22T01:20:13;1.63;;;0.17;;
25615;SDS011;13482;48.234;13.006;2023-12-22T01:22:41;0.82;;;0.20;;
25615;SDS011;13482;48.234;13.006;2023-12-22T01:25:08;0.77;;;0.20;;
25615;SDS011;13482;48.234;13.006;2023-12-22T01:27:36;1.58;;;0.10;;
25615;SDS011;13482;48.234;13.006;2023-12-22T01:30:04;0.88;;;0.25;;
25615;SDS011;13482;48.234;13.006;2023-12-22T01:32:32;0.22;;;0.10;;
25615;SDS011;13482;48.234;13.006;2023-12-22T01:35:02;0.63;;;0.22;;
25615;SDS011;13482;48.234;13.006;2023-12-22T01:37:36;0.50;;;0.20;;
25615;SDS011;13482;48.234;13.006;2023-12-22T01:40:04;1.13;;;0.30;;
25615;SDS011;13482;48.234;13.006;2023-12-22T01:42:33;0.93;;;0.20;;
25615;SDS011;13482;48.234;13.006;2023-12-22T01:45:01;1.77;;;0.20;;
25615;SDS011;13482;48.234;13.006;2023-12-22T01:47:29;1.30;;;0.40;;
25615;SDS011;13482;48.234;13.006;2023-12-22T01:49:56;0.75;;;0.30;;
25615;SDS011;13482;48.234;13.006;2023-12-22T01:52:24;0.52;;;0.20;;
25615;SDS011;13482;48.234;13.006;2023-12-22T01:54:53;0.30;;;0.20;;
25615;SDS011;13482;48.234;13.006;2023-12-22T01:57:22;0.52;;;0.20;;
25615;SDS011;13482;48.234;13.006;2023-12-22T01:59:52;0.73;;;0.20;;
25615;SDS011;13482;48.234;13.006;2023-12-22T02:02:30;1.83;;;0.40;;
25615;SDS011;13482;48.234;13.006;2023-12-22T02:05:20;0.70;;;0.20;;
25615;SDS011;13482;48.234;13.006;2023-12-22T02:08:02;0.40;;;0.20;;
25615;SDS011;13482;48.234;13.006;2023-12-22T02:10:36;0.77;;;0.20;;
25615;SDS011;13482;48.234;13.006;2023-12-22T02:13:19;1.38;;;0.28;;
25615;SDS011;13482;48.234;13.006;2023-12-22T02:15:48;1.48;;;0.20;;
25615;SDS011;13482;48.234;13.006;2023-12-22T02:18:33;1.25;;;0.43;;
25615;SDS011;13482;48.234;13.006;2023-12-22T02:21:08;1.40;;;0.40;;
25615;SDS011;13482;48.234;13.006;2023-12-22T02:23:37;1.45;;;0.25;;
25615;SDS011;13482;48.234;13.006;2023-12-22T02:26:41;0.95;;;0.20;;
25615;SDS011;13482;48.234;13.006;2023-12-22T02:29:23;0.70;;;0.20;;
25615;SDS011;13482;48.234;13.006;2023-12-22T02:31:56;0.28;;;0.10;;
25615;SDS011;13482;48.234;13.006;2023-12-22T02:34:37;0.30;;;0.20;;
25615;SDS011;13482;48.234;13.006;2023-12-22T02:37:14;0.65;;;0.17;;
25615;SDS011;13482;48.234;13.006;2023-12-22T02:39:57;0.70;;;0.50;;
25615;SDS011;13482;48.234;13.006;2023-12-22T02:42:30;0.95;;;0.20;;
25615;SDS011;13482;48.234;13.006;2023-12-22T02:45:06;0.50;;;0.20;;
25615;SDS011;13482;48.234;13.006;2023-12-22T02:48:24;1.98;;;0.50;;
25615;SDS011;13482;48.234;13.006;2023-12-22T02:50:52;0.73;;;0.35;;
25615;SDS011;13482;48.234;13.006;2023-12-22T02:53:20;1.55;;;0.30;;
25615;SDS011;13482;48.234;13.006;2023-12-22T02:55:53;1.92;;;0.38;;
25615;SDS011;13482;48.234;13.006;2023-12-22T02:58:23;0.50;;;0.30;;
25615;SDS011;13482;48.234;13.006;2023-12-22T03:00:52;0.73;;;0.20;;
25615;SDS011;13482;48.234;13.006;2023-12-22T03:03:20;1.48;;;0.30;;
25615;SDS011;13482;48.234;13.006;2023-12-22T03:05:49;0.80;;;0.20;;
25615;SDS011;13482;48.234;13.006;2023-12-22T03:08:20;0.80;;;0.20;;
25615;SDS011;13482;48.234;13.006;2023-12-22T03:10:47;0.45;;;0.20;;
25615;SDS011;13482;48.234;13.006;2023-12-22T03:13:16;0.32;;;0.13;;
25615;SDS011;13482;48.234;13.006;2023-12-22T03:15:44;0.63;;;0.20;;
25615;SDS011;13482;48.234;13.006;2023-12-22T03:18:11;0.47;;;0.20;;
25615;SDS011;13482;48.234;13.006;2023-12-22T03:20:39;1.25;;;0.30;;
25615;SDS011;13482;48.234;13.006;2023-12-22T03:23:06;2.15;;;0.40;;
25615;SDS011;13482;48.234;13.006;2023-12-22T03:25:35;0.50;;;0.20;;
25615;SDS011;13482;48.234;13.006;2023-12-22T03:28:03;0.63;;;0.10;;
25615;SDS011;13482;48.234;13.006;2023-12-22T03:30:32;0.80;;;0.20;;
25615;SDS011;13482;48.234;13.006;2023-12-22T03:33:00;1.35;;;0.20;;
25615;SDS011;13482;48.234;13.006;2023-12-22T03:35:29;0.93;;;0.40;;
25615;SDS011;13482;48.234;13.006;2023-12-22T03:37:56;1.25;;;0.30;;
25615;SDS011;13482;48.234;13.006;2023-12-22T03:40:25;0.35;;;0.20;;
25615;SDS011;13482;48.234;13.006;2023-12-22T03:42:55;0.55;;;0.20;;
25615;SDS011;13482;48.234;13.006;2023-12-22T03:45:23;0.43;;;0.10;;
25615;SDS011;13482;48.234;13.006;2023-12-22T03:47:52;0.75;;;0.28;;
25615;SDS011;13482;48.234;13.006;2023-12-22T03:50:20;0.35;;;0.20;;
25615;SDS011;13482;48.234;13.006;2023-12-22T03:52:49;0.63;;;0.10;;
25615;SDS011;13482;48.234;13.006;2023-12-22T03:55:18;0.93;;;0.13;;
25615;SDS011;13482;48.234;13.006;2023-12-22T03:57:46;0.70;;;0.20;;
25615;SDS011;13482;48.234;13.006;2023-12-22T04:00:14;0.28;;;0.10;;
25615;SDS011;13482;48.234;13.006;2023-12-22T04:02:43;0.75;;;0.22;;
25615;SDS011;13482;48.234;13.006;2023-12-22T04:05:11;0.20;;;0.10;;
25615;SDS011;13482;48.234;13.006;2023-12-22T04:07:39;0.50;;;0.10;;
25615;SDS011;13482;48.234;13.006;2023-12-22T04:10:06;0.95;;;0.25;;
25615;SDS011;13482;48.234;13.006;2023-12-22T04:12:35;0.40;;;0.20;;
25615;SDS011;13482;48.234;13.006;2023-12-22T04:15:04;1.05;;;0.20;;
25615;SDS011;13482;48.234;13.006;2023-12-22T04:17:35;0.35;;;0.17;;
25615;SDS011;13482;48.234;13.006;2023-12-22T04:20:04;0.50;;;0.20;;
25615;SDS011;13482;48.234;13.006;2023-12-22T04:22:36;1.00;;;0.40;;
25615;SDS011;13482;48.234;13.006;2023-12-22T04:25:08;0.57;;;0.28;;
25615;SDS011;13482;48.234;13.006;2023-12-22T04:27:36;2.17;;;0.65;;
25615;SDS011;13482;48.234;13.006;2023-12-22T04:30:07;1.20;;;0.50;;
25615;SDS011;13482;48.234;13.006;2023-12-22T04:32:35;0.77;;;0.30;;
25615;SDS011;13482;48.234;13.006;2023-12-22T04:35:04;1.08;;;0.45;;
25615;SDS011;13482;48.234;13.006;2023-12-22T04:37:32;1.40;;;0.30;;
25615;SDS011;13482;48.234;13.006;2023-12-22T04:40:05;0.93;;;0.30;;
25615;SDS011;13482;48.234;13.006;2023-12-22T04:42:36;0.40;;;0.20;;
25615;SDS011;13482;48.234;13.006;2023-12-22T04:45:05;0.22;;;0.10;;
25615;SDS011;13482;48.234;13.006;2023-12-22T04:47:35;0.88;;;0.20;;
25615;SDS011;13482;48.234;13.006;2023-12-22T04:50:04;0.20;;;0.10;;
25615;SDS011;13482;48.234;13.006;2023-12-22T04:52:39;0.20;;;0.10;;
25615;SDS011;13482;48.234;13.006;2023-12-22T04:55:10;0.40;;;0.20;;
25615;SDS011;13482;48.234;13.006;2023-12-22T04:57:45;0.35;;;0.20;;
25615;SDS011;13482;48.234;13.006;2023-12-22T05:00:15;0.85;;;0.10;;
25615;SDS011;13482;48.234;13.006;2023-12-22T05:02:43;0.30;;;0.10;;
25615;SDS011;13482;48.234;13.006;2023-12-22T05:05:11;0.52;;;0.10;;
25615;SDS011;13482;48.234;13.006;2023-12-22T05:07:40;0.10;;;0.00;;
25615;SDS011;13482;48.234;13.006;2023-12-22T05:10:08;0.38;;;0.10;;
25615;SDS011;13482;48.234;13.006;2023-12-22T05:12:38;0.30;;;0.10;;
25615;SDS011;13482;48.234;13.006;2023-12-22T05:15:07;0.40;;;0.03;;
25615;SDS011;13482;48.234;13.006;2023-12-22T05:17:35;0.20;;;0.08;;
25615;SDS011;13482;48.234;13.006;2023-12-22T05:20:04;0.20;;;0.10;;
25615;SDS011;13482;48.234;13.006;2023-12-22T05:22:36;0.10;;;0.03;;
25615;SDS011;13482;48.234;13.006;2023-12-22T05:25:06;0.57;;;0.10;;
25615;SDS011;13482;48.234;13.006;2023-12-22T05:27:40;0.20;;;0.10;;
25615;SDS011;13482;48.234;13.006;2023-12-22T05:30:10;0.75;;;0.45;;
25615;SDS011;13482;48.234;13.006;2023-12-22T05:32:44;0.30;;;0.30;;
25615;SDS011;13482;48.234;13.006;2023-12-22T05:35:14;1.85;;;1.70;;
25615;SDS011;13482;48.234;13.006;2023-12-22T05:37:43;1.85;;;1.65;;
25615;SDS011;13482;48.234;13.006;2023-12-22T05:40:11;1.52;;;1.30;;
25615;SDS011;13482;48.234;13.006;2023-12-22T05:42:41;1.70;;;1.60;;
25615;SDS011;13482;48.234;13.006;2023-12-22T05:45:14;1.85;;;1.65;;
25615;SDS011;13482;48.234;13.006;2023-12-22T05:47:43;2.85;;;2.50;;
25615;SDS011;13482;48.234;13.006;2023-12-22T05:50:14;3.35;;;2.95;;
25615;SDS011;13482;48.234;13.006;2023-12-22T05:52:55;2.20;;;1.70;;
25615;SDS011;13482;48.234;13.006;2023-12-22T05:55:24;2.28;;;1.33;;
25615;SDS011;13482;48.234;13.006;2023-12-22T05:57:56;1.33;;;0.95;;
25615;SDS011;13482;48.234;13.006;2023-12-22T06:00:38;0.70;;;0.50;;
25615;SDS011;13482;48.234;13.006;2023-12-22T06:03:07;0.43;;;0.40;;
25615;SDS011;13482;48.234;13.006;2023-12-22T06:05:37;1.00;;;0.40;;
25615;SDS011;13482;48.234;13.006;2023-12-22T06:08:08;0.70;;;0.30;;
25615;SDS011;13482;48.234;13.006;2023-12-22T06:10:43;0.52;;;0.22;;
25615;SDS011;13482;48.234;13.006;2023-12-22T06:13:12;1.15;;;0.30;;
25615;SDS011;13482;48.234;13.006;2023-12-22T06:15:41;0.50;;;0.20;;
25615;SDS011;13482;48.234;13.006;2023-12-22T06:18:12;0.40;;;0.20;;
25615;SDS011;13482;48.234;13.006;2023-12-22T06:20:43;0.50;;;0.35;;
25615;SDS011;13482;48.234;13.006;2023-12-22T06:23:16;0.55;;;0.38;;
25615;SDS011;13482;48.234;13.006;2023-12-22T06:25:51;0.40;;;0.30;;
25615;SDS011;13482;48.234;13.006;2023-12-22T06:28:21;0.45;;;0.30;;
25615;SDS011;13482;48.234;13.006;2023-12-22T06:30:49;4.47;;;3.30;;
25615;SDS011;13482;48.234;13.006;2023-12-22T06:33:19;3.00;;;2.10;;
25615;SDS011;13482;48.234;13.006;2023-12-22T06:35:51;1.80;;;1.33;;
25615;SDS011;13482;48.234;13.006;2023-12-22T06:38:20;1.42;;;0.88;;
25615;SDS011;13482;48.234;13.006;2023-12-22T06:40:50;4.32;;;3.78;;
25615;SDS011;13482;48.234;13.006;2023-12-22T06:43:20;4.75;;;3.05;;
25615;SDS011;13482;48.234;13.006;2023-12-22T06:45:49;5.15;;;3.60;;
25615;SDS011;13482;48.234;13.006;2023-12-22T06:48:22;2.60;;;2.00;;
25615;SDS011;13482;48.234;13.006;2023-12-22T06:50:59;1.48;;;1.23;;
25615;SDS011;13482;48.234;13.006;2023-12-22T06:53:30;0.90;;;0.77;;
25615;SDS011;13482;48.234;13.006;2023-12-22T06:56:01;0.20;;;0.20;;
25615;SDS011;13482;48.234;13.006;2023-12-22T06:58:31;0.30;;;0.20;;
25615;SDS011;13482;48.234;13.006;2023-12-22T07:01:02;0.82;;;0.30;;
25615;SDS011;13482;48.234;13.006;2023-12-22T07:03:37;0.70;;;0.43;;
25615;SDS011;13482;48.234;13.006;2023-12-22T07:06:10;1.17;;;0.70;;
25615;SDS011;13482;48.234;13.006;2023-12-22T07:08:38;0.88;;;0.40;;
25615;SDS011;13482;48.234;13.006;2023-12-22T07:13:39;0.68;;;0.40;;
25615;SDS011;13482;48.234;13.006;2023-12-22T07:16:09;1.65;;;0.50;;
25615;SDS011;13482;48.234;13.006;2023-12-22T07:18:40;0.73;;;0.52;;
25615;SDS011;13482;48.234;13.006;2023-12-22T07:21:15;0.47;;;0.30;;
25615;SDS011;13482;48.234;13.006;2023-12-22T07:23:45;0.50;;;0.30;;
25615;SDS011;13482;48.234;13.006;2023-12-22T07:26:17;0.50;;;0.40;;
25615;SDS011;13482;48.234;13.006;2023-12-22T07:28:48;1.95;;;1.15;;
25615;SDS011;13482;48.234;13.006;2023-12-22T07:31:20;1.23;;;0.98;;
25615;SDS011;13482;48.234;13.006;2023-12-22T07:33:49;1.83;;;1.23;;
25615;SDS011;13482;48.234;13.006;2023-12-22T07:36:22;1.15;;;0.80;;
25615;SDS011;13482;48.234;13.006;2023-12-22T07:38:54;2.83;;;1.88;;
25615;SDS011;13482;48.234;13.006;2023-12-22T07:41:26;2.78;;;1.92;;
25615;SDS011;13482;48.234;13.006;2023-12-22T07:43:55;5.28;;;3.35;;
25615;SDS011;13482;48.234;13.006;2023-12-22T07:46:27;5.93;;;4.00;;
25615;SDS011;13482;48.234;13.006;2023-12-22T07:48:56;9.30;;;5.60;;
25615;SDS011;13482;48.234;13.006;2023-12-22T07:51:28;17.10;;;11.13;;
25615;SDS011;13482;48.234;13.006;2023-12-22T07:53:58;10.68;;;6.85;;
25615;SDS011;13482;48.234;13.006;2023-12-22T07:56:29;7.43;;;4.70;;
25615;SDS011;13482;48.234;13.006;2023-12-22T07:59:04;4.10;;;2.40;;
25615;SDS011;13482;48.234;13.006;2023-12-22T08:01:55;2.42;;;1.60;;
25615;SDS011;13482;48.234;13.006;2023-12-22T08:04:24;2.13;;;1.40;;
25615;SDS011;13482;48.234;13.006;2023-12-22T08:06:56;1.60;;;1.00;;
25615;SDS011;13482;48.234;13.006;2023-12-22T08:09:24;2.13;;;1.90;;
25615;SDS011;13482;48.234;13.006;2023-12-22T08:11:55;1.73;;;1.55;;
25615;SDS011;13482;48.234;13.006;2023-12-22T08:14:28;2.15;;;1.65;;
25615;SDS011;13482;48.234;13.006;2023-12-22T08:16:57;1.52;;;1.00;;
25615;SDS011;13482;48.234;13.006;2023-12-22T08:19:28;0.80;;;0.60;;
25615;SDS011;13482;48.234;13.006;2023-12-22T08:21:58;0.82;;;0.50;;
25615;SDS011;13482;48.234;13.006;2023-12-22T08:24:32;0.47;;;0.30;;
25615;SDS011;13482;48.234;13.006;2023-12-22T08:27:04;0.60;;;0.30;;
25615;SDS011;13482;48.234;13.006;2023-12-22T08:29:34;0.80;;;0.40;;
25615;SDS011;13482;48.234;13.006;2023-12-22T08:32:04;0.68;;;0.25;;
25615;SDS011;13482;48.234;13.006;2023-12-22T08:34:33;0.40;;;0.20;;
25615;SDS011;13482;48.234;13.006;2023-12-22T08:37:09;0.88;;;0.10;;
25615;SDS011;13482;48.234;13.006;2023-12-22T08:39:42;0.57;;;0.30;;
25615;SDS011;13482;48.234;13.006;2023-12-22T08:42:10;0.88;;;0.15;;
25615;SDS011;13482;48.234;13.006;2023-12-22T08:44:41;0.65;;;0.20;;
25615;SDS011;13482;48.234;13.006;2023-12-22T08:47:10;0.25;;;0.10;;
25615;SDS011;13482;48.234;13.006;2023-12-22T08:49:39;0.63;;;0.20;;
25615;SDS011;13482;48.234;13.006;2023-12-22T08:52:07;0.75;;;0.20;;
25615;SDS011;13482;48.234;13.006;2023-12-22T08:54:37;0.30;;;0.10;;
25615;SDS011;13482;48.234;13.006;2023-12-22T08:57:06;0.17;;;0.10;;
25615;SDS011;13482;48.234;13.006;2023-12-22T08:59:36;0.43;;;0.10;;
25615;SDS011;13482;48.234;13.006;2023-12-22T09:02:07;0.80;;;0.20;;
25615;SDS011;13482;48.234;13.006;2023-12-22T09:04:38;0.40;;;0.30;;
25615;SDS011;13482;48.234;13.006;2023-12-22T09:07:07;0.98;;;0.30;;
25615;SDS011;13482;48.234;13.006;2023-12-22T09:09:37;0.60;;;0.10;;
25615;SDS011;13482;48.234;13.006;2023-12-22T09:12:10;0.88;;;0.20;;
25615;SDS011;13482;48.234;13.006;2023-12-22T09:14:42;0.52;;;0.20;;
25615;SDS011;13482;48.234;13.006;2023-12-22T09:17:12;0.50;;;0.10;;
25615;SDS011;13482;48.234;13.006;2023-12-22T09:19:39;0.52;;;0.20;;
25615;SDS011;13482;48.234;13.006;2023-12-22T09:22:11;0.47;;;0.20;;
25615;SDS011;13482;48.234;13.006;2023-12-22T09:24:39;0.88;;;0.30;;
25615;SDS011;13482;48.234;13.006;2023-12-22T09:27:10;0.93;;;0.30;;
25615;SDS011;13482;48.234;13.006;2023-12-22T09:29:42;0.28;;;0.10;;
25615;SDS011;13482;48.234;13.006;2023-12-22T09:32:12;0.30;;;0.10;;
25615;SDS011;13482;48.234;13.006;2023-12-22T09:34:40;0.30;;;0.13;;
25615;SDS011;13482;48.234;13.006;2023-12-22T09:37:08;0.40;;;0.10;;
25615;SDS011;13482;48.234;13.006;2023-12-22T09:39:42;1.08;;;0.25;;
25615;SDS011;13482;48.234;13.006;2023-12-22T09:42:12;0.55;;;0.20;;
25615;SDS011;13482;48.234;13.006;2023-12-22T09:44:42;0.40;;;0.20;;
25615;SDS011;13482;48.234;13.006;2023-12-22T09:47:14;1.00;;;0.30;;
25615;SDS011;13482;48.234;13.006;2023-12-22T09:49:45;0.50;;;0.20;;
25615;SDS011;13482;48.234;13.006;2023-12-22T09:52:16;1.67;;;0.35;;
25615;SDS011;13482;48.234;13.006;2023-12-22T09:54:47;0.90;;;0.30;;
25615;SDS011;13482;48.234;13.006;2023-12-22T09:57:19;1.37;;;0.23;;
25615;SDS011;13482;48.234;13.006;2023-12-22T09:59:55;1.70;;;0.30;;
25615;SDS011;13482;48.234;13.006;2023-12-22T10:02:27;0.50;;;0.30;;
25615;SDS011;13482;48.234;13.006;2023-12-22T10:05:01;0.85;;;0.28;;
25615;SDS011;13482;48.234;13.006;2023-12-22T10:07:31;0.20;;;0.20;;
25615;SDS011;13482;48.234;13.006;2023-12-22T10:10:01;0.45;;;0.20;;
25615;SDS011;13482;48.234;13.006;2023-12-22T10:12:35;0.40;;;0.20;;
25615;SDS011;13482;48.234;13.006;2023-12-22T10:15:10;0.57;;;0.30;;
25615;SDS011;13482;48.234;13.006;2023-12-22T10:17:43;0.40;;;0.20;;
25615;SDS011;13482;48.234;13.006;2023-12-22T10:20:15;0.40;;;0.15;;
25615;SDS011;13482;48.234;13.006;2023-12-22T10:22:45;0.60;;;0.20;;
25615;SDS011;13482;48.234;13.006;2023-12-22T10:25:19;0.40;;;0.15;;
25615;SDS011;13482;48.234;13.006;2023-12-22T10:27:56;5.28;;;2.70;;
25615;SDS011;13482;48.234;13.006;2023-12-22T10:30:26;13.15;;;7.60;;
25615;SDS011;13482;48.234;13.006;2023-12-22T10:32:56;16.75;;;8.55;;
25615;SDS011;13482;48.234;13.006;2023-12-22T10:35:26;8.60;;;5.05;;
25615;SDS011;13482;48.234;13.006;2023-12-22T10:37:55;4.85;;;2.97;;
25615;SDS011;13482;48.234;13.006;2023-12-22T10:40:28;3.30;;;1.58;;
25615;SDS011;13482;48.234;13.006;2023-12-22T10:42:59;3.25;;;1.00;;
25615;SDS011;13482;48.234;13.006;2023-12-22T10:45:30;2.20;;;0.70;;
25615;SDS011;13482;48.234;13.006;2023-12-22T10:48:02;1.77;;;0.35;;
25615;SDS011;13482;48.234;13.006;2023-12-22T10:50:36;1.50;;;0.47;;
25615;SDS011;13482;48.234;13.006;2023-12-22T10:53:15;0.60;;;0.30;;
25615;SDS011;13482;48.234;13.006;2023-12-22T10:55:46;1.33;;;0.50;;
25615;SDS011;13482;48.234;13.006;2023-12-22T10:58:18;1.50;;;0.43;;
25615;SDS011;13482;48.234;13.006;2023-12-22T11:00:50;0.88;;;0.32;;
25615;SDS011;13482;48.234;13.006;2023-12-22T11:03:23;3.25;;;0.70;;
25615;SDS011;13482;48.234;13.006;2023-12-22T11:05:56;2.17;;;0.57;;
25615;SDS011;13482;48.234;13.006;2023-12-22T11:08:32;1.23;;;0.40;;
25615;SDS011;13482;48.234;13.006;2023-12-22T11:11:09;1.77;;;0.40;;
25615;SDS011;13482;48.234;13.006;2023-12-22T11:14:47;0.80;;;0.20;;
25615;SDS011;13482;48.234;13.006;2023-12-22T11:17:39;0.73;;;0.22;;
25615;SDS011;13482;48.234;13.006;2023-12-22T11:23:10;1.15;;;0.40;;
25615;SDS011;13482;48.234;13.006;2023-12-22T11:25:53;1.13;;;0.40;;
25615;SDS011;13482;48.234;13.006;2023-12-22T11:28:28;1.52;;;0.50;;
25615;SDS011;13482;48.234;13.006;2023-12-22T11:30:58;0.65;;;0.43;;
25615;SDS011;13482;48.234;13.006;2023-12-22T11:33:32;1.30;;;0.47;;
25615;SDS011;13482;48.234;13.006;2023-12-22T11:36:39;1.30;;;0.45;;
25615;SDS011;13482;48.234;13.006;2023-12-22T11:39:11;1.58;;;0.50;;
25615;SDS011;13482;48.234;13.006;2023-12-22T11:41:40;1.80;;;0.50;;
25615;SDS011;13482;48.234;13.006;2023-12-22T11:44:10;0.93;;;0.50;;
25615;SDS011;13482;48.234;13.006;2023-12-22T11:46:42;1.05;;;0.60;;
25615;SDS011;13482;48.234;13.006;2023-12-22T11:49:15;0.95;;;0.43;;
25615;SDS011;13482;48.234;13.006;2023-12-22T11:51:58;1.67;;;0.55;;
25615;SDS011;13482;48.234;13.006;2023-12-22T11:54:57;0.80;;;0.35;;
25615;SDS011;13482;48.234;13.006;2023-12-22T11:57:43;2.45;;;0.73;;
25615;SDS011;13482;48.234;13.006;2023-12-22T12:02:55;2.17;;;0.57;;
25615;SDS011;13482;48.234;13.006;2023-12-22T12:05:25;1.25;;;0.35;;
25615;SDS011;13482;48.234;13.006;2023-12-22T12:08:05;1.42;;;0.43;;
25615;SDS011;13482;48.234;13.006;2023-12-22T12:13:23;2.17;;;0.47;;
25615;SDS011;13482;48.234;13.006;2023-12-22T12:15:55;2.25;;;0.50;;
25615;SDS011;13482;48.234;13.006;2023-12-22T12:18:28;1.67;;;0.50;;
25615;SDS011;13482;48.234;13.006;2023-12-22T12:21:02;2.38;;;0.60;;
25615;SDS011;13482;48.234;13.006;2023-12-22T12:23:48;1.48;;;0.50;;
25615;SDS011;13482;48.234;13.006;2023-12-22T12:26:24;1.05;;;0.40;;
25615;SDS011;13482;48.234;13.006;2023-12-22T12:29:09;0.28;;;0.15;;
25615;SDS011;13482;48.234;13.006;2023-12-22T12:31:42;0.75;;;0.20;;
25615;SDS011;13482;48.234;13.006;2023-12-22T12:34:12;0.90;;;0.30;;
25615;SDS011;13482;48.234;13.006;2023-12-22T12:36:46;0.52;;;0.20;;
25615;SDS011;13482;48.234;13.006;2023-12-22T12:39:22;0.30;;;0.20;;
25615;SDS011;13482;48.234;13.006;2023-12-22T12:41:55;0.75;;;0.32;;
25615;SDS011;13482;48.234;13.006;2023-12-22T12:44:27;0.60;;;0.13;;
25615;SDS011;13482;48.234;13.006;2023-12-22T12:47:00;0.47;;;0.20;;
25615;SDS011;13482;48.234;13.006;2023-12-22T12:49:45;1.17;;;0.20;;
25615;SDS011;13482;48.234;13.006;2023-12-22T12:52:19;1.10;;;0.38;;
25615;SDS011;13482;48.234;13.006;2023-12-22T12:54:48;0.50;;;0.10;;
25615;SDS011;13482;48.234;13.006;2023-12-22T12:57:16;0.40;;;0.20;;
25615;SDS011;13482;48.234;13.006;2023-12-22T12:59:48;1.27;;;0.47;;
25615;SDS011;13482;48.234;13.006;2023-12-22T13:02:22;1.17;;;0.32;;
25615;SDS011;13482;48.234;13.006;2023-12-22T13:04:56;0.60;;;0.20;;
25615;SDS011;13482;48.234;13.006;2023-12-22T13:07:26;0.68;;;0.30;;
25615;SDS011;13482;48.234;13.006;2023-12-22T13:09:58;0.47;;;0.20;;
25615;SDS011;13482;48.234;13.006;2023-12-22T13:12:29;0.25;;;0.10;;
25615;SDS011;13482;48.234;13.006;2023-12-22T13:15:01;0.47;;;0.15;;
25615;SDS011;13482;48.234;13.006;2023-12-22T13:17:40;0.75;;;0.28;;
25615;SDS011;13482;48.234;13.006;2023-12-22T13:20:10;1.95;;;0.30;;
25615;SDS011;13482;48.234;13.006;2023-12-22T13:22:41;1.40;;;0.40;;
25615;SDS011;13482;48.234;13.006;2023-12-22T13:25:09;1.02;;;0.20;;
25615;SDS011;13482;48.234;13.006;2023-12-22T13:27:48;0.93;;;0.30;;
25615;SDS011;13482;48.234;13.006;2023-12-22T13:30:35;0.63;;;0.30;;
25615;SDS011;13482;48.234;13.006;2023-12-22T13:33:08;1.45;;;0.50;;
25615;SDS011;13482;48.234;13.006;2023-12-22T13:35:39;1.23;;;0.38;;
25615;SDS011;13482;48.234;13.006;2023-12-22T13:38:10;1.77;;;0.63;;
25615;SDS011;13482;48.234;13.006;2023-12-22T13:40:46;1.80;;;0.60;;
25615;SDS011;13482;48.234;13.006;2023-12-22T13:43:18;3.03;;;0.80;;
25615;SDS011;13482;48.234;13.006;2023-12-22T13:45:51;2.33;;;0.60;;
25615;SDS011;13482;48.234;13.006;2023-12-22T13:48:21;2.13;;;0.57;;
25615;SDS011;13482;48.234;13.006;2023-12-22T13:50:59;1.52;;;0.55;;
25615;SDS011;13482;48.234;13.006;2023-12-22T13:53:28;1.80;;;0.55;;
25615;SDS011;13482;48.234;13.006;2023-12-22T13:55:58;1.50;;;0.50;;
25615;SDS011;13482;48.234;13.006;2023-12-22T13:58:28;1.63;;;0.57;;
25615;SDS011;13482;48.234;13.006;2023-12-22T14:01:02;1.80;;;0.52;;
25615;SDS011;13482;48.234;13.006;2023-12-22T14:03:43;1.17;;;0.50;;
25615;SDS011;13482;48.234;13.006;2023-12-22T14:06:13;1.20;;;0.60;;
25615;SDS011;13482;48.234;13.006;2023-12-22T14:08:41;1.70;;;0.70;;
25615;SDS011;13482;48.234;13.006;2023-12-22T14:11:14;1.35;;;0.35;;
25615;SDS011;13482;48.234;13.006;2023-12-22T14:13:43;2.40;;;0.40;;
25615;SDS011;13482;48.234;13.006;2023-12-22T14:16:13;1.40;;;0.40;;
25615;SDS011;13482;48.234;13.006;2023-12-22T14:18:44;1.25;;;0.50;;
25615;SDS011;13482;48.234;13.006;2023-12-22T14:21:17;1.25;;;0.60;;
25615;SDS011;13482;48.234;13.006;2023-12-22T14:23:48;1.48;;;0.50;;
25615;SDS011;13482;48.234;13.006;2023-12-22T14:26:21;1.80;;;0.60;;
25615;SDS011;13482;48.234;13.006;2023-12-22T14:28:57;1.73;;;0.80;;
25615;SDS011;13482;48.234;13.006;2023-12-22T14:31:59;1.75;;;0.80;;
25615;SDS011;13482;48.234;13.006;2023-12-22T14:34:32;0.90;;;0.50;;
25615;SDS011;13482;48.234;13.006;2023-12-22T14:37:05;0.88;;;0.50;;
25615;SDS011;13482;48.234;13.006;2023-12-22T14:40:00;2.03;;;0.73;;
25615;SDS011;13482;48.234;13.006;2023-12-22T14:43:01;0.95;;;0.55;;
25615;SDS011;13482;48.234;13.006;2023-12-22T14:47:04;1.40;;;0.57;;
25615;SDS011;13482;48.234;13.006;2023-12-22T15:11:05;0.93;;;0.30;;
25615;SDS011;13482;48.234;13.006;2023-12-22T15:13:38;0.60;;;0.28;;
25615;SDS011;13482;48.234;13.006;2023-12-22T15:16:11;0.98;;;0.28;;
25615;SDS011;13482;48.234;13.006;2023-12-22T15:49:37;1.65;;;0.40;;
25615;SDS011;13482;48.234;13.006;2023-12-22T15:52:11;1.05;;;0.40;;
25615;SDS011;13482;48.234;13.006;2023-12-22T15:54:40;0.95;;;0.50;;
25615;SDS011;13482;48.234;13.006;2023-12-22T15:57:09;0.77;;;0.40;;
25615;SDS011;13482;48.234;13.006;2023-12-22T15:59:44;0.32;;;0.20;;
25615;SDS011;13482;48.234;13.006;2023-12-22T16:02:13;1.75;;;0.50;;
25615;SDS011;13482;48.234;13.006;2023-12-22T16:04:48;1.10;;;0.40;;
25615;SDS011;13482;48.234;13.006;2023-12-22T16:07:18;0.90;;;0.40;;
25615;SDS011;13482;48.234;13.006;2023-12-22T16:09:51;1.08;;;0.40;;